Rotterdam — V7OO5 — position and weather

sailwx.info

Track history (hours):
 
Tides and Currents Weather Stations Pressure Air Temp Water Temp Dewpoint Dewpoint Depression Visibility Wind Speed Wind Dir Waves Ship Positions

Rotterdam

Last reported at 2017-Dec-17 09:11 UTC. Time now 2017-Dec-17 23:08 UTC.
Position N 36°13' E 014°47'.

Length 293 m; draft 11.6 m.

Type: Cargo ship. MMSI: 538006564.

Date/timePositionNaut miles runAvg speedWind from/ knotsBaromVisibWave heightAir tempDewpointWater temp
2017-Dec-17 09:11N 36°13' E 014°47'315.9
2017-Dec-17 09:00N 36°14' E 014°44'816.0
2017-Dec-17 08:30N 36°16' E 014°34'816.1
2017-Dec-17 08:00N 36°19' E 014°25'816.1
2017-Dec-17 07:30N 36°21' E 014°15'816.3
2017-Dec-17 07:00N 36°23' E 014°05'816.4
2017-Dec-17 06:30N 36°26' E 013°56'918.2
2017-Dec-17 06:00N 36°28' E 013°45'  
2017-Dec-11 23:02N 40°40' W 029°26'216.7
2017-Dec-11 22:56N 40°40' W 029°28'  
Track history (hours):
 
Tides and Currents Weather Stations Pressure Air Temp Water Temp Dewpoint Dewpoint Depression Visibility Wind Speed Wind Dir Waves Ship Positions

Rotterdam

Last reported at 2017-Dec-17 09:11 UTC. Time now 2017-Dec-17 23:08 UTC.
Position N 36°13' E 014°47'.

Length 293 m; draft 11.6 m.

Type: Cargo ship. MMSI: 538006564.

Date/timePositionNaut miles runAvg speedWind from/ knotsBaromVisibWave heightAir tempDewpointWater temp
2017-Dec-17 09:11N 36°13' E 014°47'315.9
2017-Dec-17 09:00N 36°14' E 014°44'816.0
2017-Dec-17 08:30N 36°16' E 014°34'816.1
2017-Dec-17 08:00N 36°19' E 014°25'816.1
2017-Dec-17 07:30N 36°21' E 014°15'816.3
2017-Dec-17 07:00N 36°23' E 014°05'816.4
2017-Dec-17 06:30N 36°26' E 013°56'918.2
2017-Dec-17 06:00N 36°28' E 013°45'  
2017-Dec-11 23:02N 40°40' W 029°26'216.7
2017-Dec-11 22:56N 40°40' W 029°28'  

Dump ship's entire track history